createdAt,value
2023-02-01T00:01:14.708Z,4.97
2023-02-01T00:03:45.329Z,12.65
2023-02-01T00:06:16.087Z,5.35
2023-02-01T00:08:46.564Z,3.88
2023-02-01T00:11:17.381Z,3.85
2023-02-01T00:13:47.948Z,3.58
2023-02-01T00:16:23.145Z,4.05
2023-02-01T00:18:55.708Z,3.15
2023-02-01T00:21:26.718Z,3.58
2023-02-01T00:23:57.498Z,3.83
2023-02-01T00:26:36.097Z,3.92
2023-02-01T00:29:09.008Z,3.15
2023-02-01T00:31:42.559Z,3.10
2023-02-01T00:34:15.801Z,3.63
2023-02-01T00:36:47.098Z,4.57
2023-02-01T00:39:17.997Z,5.40
2023-02-01T00:41:49.482Z,5.88
2023-02-01T00:44:20.142Z,4.90
2023-02-01T00:46:53.410Z,5.18
2023-02-01T00:49:24.160Z,5.22
2023-02-01T00:51:54.722Z,5.88
2023-02-01T00:54:25.365Z,4.85
2023-02-01T00:56:55.912Z,4.50
2023-02-01T00:59:26.546Z,4.25
2023-02-01T01:01:59.861Z,3.80
2023-02-01T01:04:30.449Z,4.43
2023-02-01T01:07:01.057Z,3.95
2023-02-01T01:09:31.567Z,3.08
2023-02-01T01:12:03.744Z,3.65
2023-02-01T01:14:36.198Z,3.40
2023-02-01T01:17:09.416Z,3.00
2023-02-01T01:19:39.951Z,3.15
2023-02-01T01:22:10.658Z,3.08
2023-02-01T01:24:41.227Z,3.20
2023-02-01T01:27:11.875Z,2.83
2023-02-01T01:29:42.590Z,3.90
2023-02-01T01:32:15.810Z,3.05
2023-02-01T01:34:46.359Z,2.67
2023-02-01T01:37:17.093Z,2.85
2023-02-01T01:39:47.662Z,2.70
2023-02-01T01:42:18.274Z,2.58
2023-02-01T01:45:04.959Z,2.55
2023-02-01T01:47:44.574Z,2.78
2023-02-01T01:50:22.415Z,2.63
2023-02-01T01:52:56.319Z,2.42
2023-02-01T01:55:29.666Z,2.67
2023-02-01T01:58:04.678Z,2.95
2023-02-01T02:00:35.740Z,2.40
2023-02-01T02:03:16.439Z,2.45
2023-02-01T02:05:47.800Z,2.30
2023-02-01T02:08:18.455Z,2.10
2023-02-01T02:11:04.045Z,2.45
2023-02-01T02:13:38.545Z,2.33
2023-02-01T02:16:29.095Z,2.50
2023-02-01T02:19:31.947Z,2.30
2023-02-01T02:22:27.077Z,2.35
2023-02-01T02:25:33.079Z,2.08
2023-02-01T02:28:16.588Z,1.90
2023-02-01T02:31:03.652Z,1.95
2023-02-01T02:33:57.969Z,2.25
2023-02-01T02:36:39.854Z,1.88
2023-02-01T02:39:19.870Z,2.03
2023-02-01T02:42:11.039Z,1.92
2023-02-01T02:45:07.963Z,2.38
2023-02-01T02:47:48.373Z,2.17
2023-02-01T02:50:43.659Z,1.90
2023-02-01T02:53:31.623Z,1.90
2023-02-01T02:56:15.990Z,1.90
2023-02-01T02:59:00.275Z,1.92
2023-02-01T03:01:43.488Z,1.77
2023-02-01T03:04:18.740Z,1.58
2023-02-01T03:06:56.611Z,1.92
2023-02-01T03:09:34.961Z,2.40
2023-02-01T03:12:22.260Z,2.97
2023-02-01T03:14:58.964Z,3.35
2023-02-01T03:17:36.191Z,3.65
2023-02-01T03:20:12.147Z,2.17
2023-02-01T03:22:48.740Z,2.22
2023-02-01T03:25:23.574Z,1.83
2023-02-01T03:27:59.176Z,2.67
2023-02-01T03:33:04.487Z,2.20
2023-02-01T03:38:17.770Z,2.65
2023-02-01T03:40:53.057Z,2.92
2023-02-01T03:43:25.592Z,2.90
2023-02-01T03:46:01.270Z,3.35
2023-02-01T03:48:34.059Z,3.50
2023-02-01T03:51:09.664Z,3.05
2023-02-01T03:53:47.192Z,3.25
2023-02-01T03:56:18.741Z,3.28
2023-02-01T03:59:00.284Z,3.53
2023-02-01T04:01:36.161Z,3.63
2023-02-01T04:04:07.265Z,3.95
2023-02-01T04:06:38.415Z,4.35
2023-02-01T04:09:12.739Z,4.47
2023-02-01T04:11:43.423Z,4.18
2023-02-01T04:14:14.248Z,4.32
2023-02-01T04:16:44.898Z,4.25
2023-02-01T04:19:15.669Z,3.90
2023-02-01T04:21:46.346Z,4.38
2023-02-01T04:24:19.529Z,4.47
2023-02-01T04:26:50.352Z,3.53
2023-02-01T04:29:20.957Z,4.03
2023-02-01T04:31:51.808Z,3.40
2023-02-01T04:34:23.709Z,4.07
2023-02-01T04:36:54.469Z,4.10
2023-02-01T04:39:27.738Z,2.90
2023-02-01T04:41:58.647Z,3.53
2023-02-01T04:44:29.177Z,3.20
2023-02-01T04:46:59.846Z,3.10
2023-02-01T04:49:30.465Z,3.30
2023-02-01T04:52:01.028Z,3.67
2023-02-01T04:54:34.283Z,3.42
2023-02-01T04:57:05.066Z,3.22
2023-02-01T04:59:35.589Z,3.38
2023-02-01T05:02:06.115Z,2.97
2023-02-01T05:04:36.727Z,3.38
2023-02-01T05:07:07.455Z,3.88
2023-02-01T05:09:40.541Z,4.70
2023-02-01T05:12:24.523Z,5.53
2023-02-01T05:14:55.126Z,5.40
2023-02-01T05:17:25.812Z,3.80
2023-02-01T05:19:56.355Z,4.18
2023-02-01T05:22:27.107Z,4.00
2023-02-01T05:25:00.218Z,4.75
2023-02-01T05:27:33.266Z,4.50
2023-02-01T05:30:03.909Z,7.20
2023-02-01T05:32:34.713Z,7.75
2023-02-01T05:35:05.253Z,8.88
2023-02-01T05:37:35.903Z,6.65
2023-02-01T05:40:10.387Z,5.43
2023-02-01T05:42:40.979Z,5.03
2023-02-01T05:45:12.977Z,4.93
2023-02-01T05:47:43.546Z,6.13
2023-02-01T05:50:14.551Z,5.10
2023-02-01T05:52:45.281Z,5.70
2023-02-01T05:55:18.464Z,4.03
2023-02-01T05:57:49.167Z,6.72
2023-02-01T06:00:22.313Z,6.43
2023-02-01T06:02:53.318Z,7.50
2023-02-01T06:05:24.210Z,6.13
2023-02-01T06:07:55.147Z,6.85
2023-02-01T06:10:28.336Z,6.20
2023-02-01T06:12:59.209Z,6.22
2023-02-01T06:15:29.861Z,6.97
2023-02-01T06:18:00.782Z,5.60
2023-02-01T06:20:31.644Z,6.95
2023-02-01T06:23:02.239Z,5.38
2023-02-01T06:25:35.354Z,5.63
2023-02-01T06:28:06.975Z,6.53
2023-02-01T06:30:37.502Z,6.65
2023-02-01T06:33:08.085Z,5.63
2023-02-01T06:35:38.512Z,5.95
2023-02-01T06:38:09.081Z,5.88
2023-02-01T06:40:43.307Z,7.03
2023-02-01T06:43:13.876Z,6.70
2023-02-01T06:45:44.448Z,6.07
2023-02-01T06:48:14.991Z,7.03
2023-02-01T06:50:45.651Z,6.57
2023-02-01T06:53:16.209Z,7.63
2023-02-01T06:55:55.851Z,8.43
2023-02-01T06:58:26.970Z,9.32
2023-02-01T07:00:57.694Z,9.43
2023-02-01T07:03:28.598Z,9.68
2023-02-01T07:06:02.363Z,8.00
2023-02-01T07:08:33.418Z,8.05
2023-02-01T07:11:09.855Z,8.10
2023-02-01T07:13:41.282Z,11.25
2023-02-01T07:16:15.654Z,14.85
2023-02-01T07:18:46.644Z,14.90
2023-02-01T07:21:17.599Z,10.35
2023-02-01T07:23:48.187Z,9.20
2023-02-01T07:26:21.521Z,7.53
2023-02-01T07:28:52.632Z,3.67
2023-02-01T07:31:24.322Z,4.57
2023-02-01T07:33:57.380Z,5.38
2023-02-01T07:36:28.545Z,5.38
2023-02-01T07:38:58.971Z,4.80
2023-02-01T07:41:32.208Z,4.88
2023-02-01T07:44:02.704Z,3.47
2023-02-01T07:46:33.264Z,3.78
2023-02-01T07:49:03.778Z,3.85
2023-02-01T07:51:34.634Z,4.25
2023-02-01T07:54:05.192Z,4.05
2023-02-01T07:56:38.465Z,3.25
2023-02-01T07:59:09.143Z,2.90
2023-02-01T08:01:37.139Z,2.35
2023-02-01T08:04:08.032Z,4.30
2023-02-01T08:06:38.652Z,2.83
2023-02-01T08:09:12.200Z,2.67
2023-02-01T08:11:45.312Z,2.63
2023-02-01T08:14:16.056Z,3.00
2023-02-01T08:16:46.628Z,2.53
2023-02-01T08:19:17.396Z,3.20
2023-02-01T08:21:49.962Z,2.40
2023-02-01T08:24:20.582Z,3.35
2023-02-01T08:26:53.920Z,2.78
2023-02-01T08:29:24.713Z,2.58
2023-02-01T08:31:55.543Z,2.67
2023-02-01T08:34:26.619Z,2.85
2023-02-01T08:37:01.358Z,3.10
2023-02-01T08:39:31.980Z,3.00
2023-02-01T08:42:17.479Z,2.55
2023-02-01T08:44:48.489Z,2.63
2023-02-01T08:47:19.045Z,3.00
2023-02-01T08:49:49.775Z,2.70
2023-02-01T08:52:20.264Z,2.63
2023-02-01T08:54:50.834Z,2.65
2023-02-01T08:57:24.438Z,1.77
2023-02-01T08:59:55.050Z,2.03
2023-02-01T09:02:25.550Z,2.45
2023-02-01T09:04:56.519Z,1.75
2023-02-01T09:07:27.397Z,2.10
2023-02-01T09:10:01.336Z,2.63
2023-02-01T09:12:38.906Z,2.60
2023-02-01T09:17:42.879Z,2.28
2023-02-01T09:20:15.048Z,2.40
2023-02-01T09:22:45.757Z,2.45
2023-02-01T09:25:16.407Z,2.80
2023-02-01T09:27:49.608Z,3.25
2023-02-01T09:30:20.610Z,2.85
2023-02-01T09:32:51.304Z,2.08
2023-02-01T09:35:21.937Z,2.38
2023-02-01T09:37:52.556Z,2.10
2023-02-01T09:40:25.041Z,2.45
2023-02-01T09:43:20.794Z,2.35
2023-02-01T09:46:00.917Z,1.70
2023-02-01T09:48:36.519Z,2.60
2023-02-01T09:51:15.160Z,2.88
2023-02-01T09:53:48.468Z,2.97
2023-02-01T09:56:25.842Z,1.90
2023-02-01T09:59:06.719Z,2.10
2023-02-01T10:01:37.977Z,2.05
2023-02-01T10:04:12.164Z,2.28
2023-02-01T10:06:56.891Z,2.20
2023-02-01T10:09:42.620Z,2.20
2023-02-01T10:12:43.501Z,2.88
2023-02-01T10:15:32.154Z,3.15
2023-02-01T10:18:19.928Z,3.80
2023-02-01T10:21:00.420Z,2.30
2023-02-01T10:23:47.206Z,3.08
2023-02-01T10:26:23.252Z,3.00
2023-02-01T10:28:56.433Z,4.80
2023-02-01T10:31:33.025Z,2.85
2023-02-01T10:34:13.964Z,2.05
2023-02-01T10:36:48.865Z,2.10
2023-02-01T10:39:20.260Z,2.72
2023-02-01T10:41:51.355Z,2.80
2023-02-01T10:44:26.316Z,4.65
2023-02-01T10:46:59.459Z,5.03
2023-02-01T10:49:41.460Z,2.90
2023-02-01T10:52:20.464Z,2.50
2023-02-01T10:54:51.115Z,1.70
2023-02-01T10:57:29.590Z,2.80
2023-02-01T11:00:00.163Z,2.00
2023-02-01T11:02:36.834Z,2.00
2023-02-01T11:05:11.553Z,3.20
2023-02-01T11:07:49.919Z,1.90
2023-02-01T11:10:39.756Z,2.30
2023-02-01T11:13:19.982Z,1.45
2023-02-01T11:15:58.435Z,1.95
2023-02-01T11:18:34.265Z,1.80
2023-02-01T11:21:05.676Z,2.10
2023-02-01T11:23:37.663Z,1.63
2023-02-01T11:26:15.985Z,1.75
2023-02-01T11:28:55.429Z,1.73
2023-02-01T11:31:28.002Z,1.80
2023-02-01T11:34:08.594Z,1.77
2023-02-01T11:36:40.920Z,1.95
2023-02-01T11:39:27.420Z,2.28
2023-02-01T11:42:09.091Z,1.55
2023-02-01T11:44:41.839Z,1.30
2023-02-01T11:47:28.074Z,2.38
2023-02-01T11:50:03.549Z,2.25
2023-02-01T11:52:53.619Z,1.85
2023-02-01T11:55:56.741Z,2.08
2023-02-01T11:58:55.048Z,1.40
2023-02-01T12:01:40.844Z,2.25
2023-02-01T12:04:44.630Z,1.42
2023-02-01T12:07:24.015Z,1.85
2023-02-01T12:10:05.779Z,2.28
2023-02-01T12:12:45.611Z,2.10
2023-02-01T12:15:40.608Z,1.48
2023-02-01T12:18:41.800Z,2.08
2023-02-01T12:21:32.151Z,2.15
2023-02-01T12:24:31.570Z,2.92
2023-02-01T12:27:18.764Z,2.75
2023-02-01T12:30:06.425Z,2.65
2023-02-01T12:32:57.096Z,2.03
2023-02-01T12:35:43.068Z,1.70
2023-02-01T12:41:11.585Z,1.90
2023-02-01T12:43:49.712Z,1.60
2023-02-01T12:46:24.153Z,2.50
2023-02-01T12:49:00.579Z,1.60
2023-02-01T12:51:36.406Z,1.45
2023-02-01T12:54:16.538Z,1.95
2023-02-01T12:56:53.962Z,1.98
2023-02-01T12:59:30.686Z,1.90
2023-02-01T13:02:05.074Z,1.55
2023-02-01T13:04:40.165Z,1.80
2023-02-01T13:07:17.755Z,1.70
2023-02-01T13:09:53.839Z,2.38
2023-02-01T13:12:44.634Z,1.50
2023-02-01T13:15:19.193Z,1.90
2023-02-01T13:17:51.602Z,2.83
2023-02-01T13:20:28.039Z,1.70
2023-02-01T13:23:05.414Z,1.92
2023-02-01T13:25:42.163Z,1.45
2023-02-01T13:28:23.793Z,2.10
2023-02-01T13:31:17.559Z,2.53
2023-02-01T13:34:02.512Z,2.70
2023-02-01T13:36:56.544Z,2.42
2023-02-01T13:39:47.592Z,1.30
2023-02-01T13:42:22.902Z,4.35
2023-02-01T13:45:01.784Z,1.77
2023-02-01T13:47:37.905Z,1.33
2023-02-01T13:50:17.856Z,1.70
2023-02-01T13:52:55.323Z,1.40
2023-02-01T13:55:37.992Z,1.60
2023-02-01T13:58:21.618Z,1.80
2023-02-01T14:00:55.064Z,1.20
2023-02-01T14:03:26.718Z,1.27
2023-02-01T14:06:20.096Z,1.83
2023-02-01T14:09:15.465Z,2.22
2023-02-01T14:11:51.043Z,3.17
2023-02-01T14:17:45.317Z,2.50
2023-02-01T14:20:50.243Z,1.80
2023-02-01T14:23:25.389Z,1.50
2023-02-01T14:26:13.359Z,1.88
2023-02-01T14:28:48.744Z,2.30
2023-02-01T14:31:30.506Z,2.00
2023-02-01T14:34:12.932Z,1.63
2023-02-01T14:36:46.435Z,2.38
2023-02-01T14:39:26.616Z,4.20
2023-02-01T14:42:02.363Z,1.70
2023-02-01T14:44:38.887Z,2.20
2023-02-01T14:47:29.840Z,2.08
2023-02-01T14:50:26.296Z,1.95
2023-02-01T14:53:10.060Z,3.20
2023-02-01T14:55:45.171Z,3.85
2023-02-01T14:58:23.398Z,4.22
2023-02-01T15:00:57.084Z,3.15
2023-02-01T15:03:41.013Z,1.50
2023-02-01T15:06:33.700Z,2.40
2023-02-01T15:09:08.095Z,2.83
2023-02-01T15:11:58.751Z,5.07
2023-02-01T15:14:30.475Z,3.72
2023-02-01T15:17:01.130Z,3.20
2023-02-01T15:19:33.137Z,4.00
2023-02-01T15:22:06.407Z,4.15
2023-02-01T15:24:36.888Z,4.18
2023-02-01T15:27:09.499Z,4.28
2023-02-01T15:29:40.054Z,12.98
2023-02-01T15:32:10.681Z,9.45
2023-02-01T15:34:51.950Z,4.72
2023-02-01T15:37:25.762Z,3.60
2023-02-01T15:40:28.604Z,3.08
2023-02-01T15:43:02.659Z,4.15
2023-02-01T15:45:36.645Z,9.15
2023-02-01T15:48:07.287Z,10.73
2023-02-01T15:50:37.832Z,7.97
2023-02-01T15:53:22.165Z,6.07
2023-02-01T15:55:59.217Z,6.22
2023-02-01T15:58:32.974Z,4.78
2023-02-01T16:01:07.997Z,6.03
2023-02-01T16:03:42.456Z,5.63
2023-02-01T16:06:14.709Z,5.53
2023-02-01T16:09:00.041Z,4.80
2023-02-01T16:11:33.519Z,8.13
2023-02-01T16:14:04.913Z,8.25
2023-02-01T16:16:35.414Z,8.63
2023-02-01T16:19:06.194Z,7.90
2023-02-01T16:21:36.660Z,11.52
2023-02-01T16:24:10.512Z,12.93
2023-02-01T16:26:41.516Z,12.30
2023-02-01T16:29:12.151Z,12.02
2023-02-01T16:31:43.812Z,9.77
2023-02-01T16:34:18.938Z,11.02
2023-02-01T16:36:54.544Z,9.25
2023-02-01T16:39:28.922Z,9.70
2023-02-01T16:42:01.429Z,11.15
2023-02-01T16:44:32.798Z,10.05
2023-02-01T16:47:03.321Z,16.85
2023-02-01T16:49:34.146Z,14.07
2023-02-01T16:52:04.781Z,16.23
2023-02-01T16:54:37.979Z,14.43
2023-02-01T16:57:09.218Z,18.05
2023-02-01T16:59:40.080Z,20.77
2023-02-01T17:02:14.359Z,22.27
2023-02-01T17:04:45.814Z,21.95
2023-02-01T17:07:18.316Z,22.15
2023-02-01T17:09:51.681Z,18.10
2023-02-01T17:12:26.995Z,20.67
2023-02-01T17:14:58.426Z,22.20
2023-02-01T17:17:38.827Z,27.45
2023-02-01T17:20:11.619Z,34.28
2023-02-01T17:22:42.379Z,29.88
2023-02-01T17:25:22.684Z,23.55
2023-02-01T17:27:53.435Z,24.88
2023-02-01T17:30:24.301Z,31.55
2023-02-01T17:32:55.559Z,33.13
2023-02-01T17:35:29.384Z,24.92
2023-02-01T17:37:59.945Z,23.10
2023-02-01T17:40:33.154Z,24.70
2023-02-01T17:43:03.669Z,35.30
2023-02-01T17:45:41.053Z,25.60
2023-02-01T17:48:11.861Z,23.90
2023-02-01T17:50:42.989Z,17.88
2023-02-01T17:53:14.314Z,18.10
2023-02-01T17:55:49.328Z,16.55
2023-02-01T17:58:21.374Z,14.10
2023-02-01T18:00:52.927Z,16.75
2023-02-01T18:03:28.931Z,19.45
2023-02-01T18:06:02.062Z,21.40
2023-02-01T18:08:35.862Z,17.40
2023-02-01T18:11:14.591Z,16.30
2023-02-01T18:13:45.841Z,15.65
2023-02-01T18:16:25.003Z,16.80
2023-02-01T18:18:57.953Z,14.93
2023-02-01T18:21:28.710Z,17.38
2023-02-01T18:23:59.350Z,21.13
2023-02-01T18:26:32.986Z,20.73
2023-02-01T18:29:03.586Z,24.13
2023-02-01T18:31:36.058Z,21.10
2023-02-01T18:34:06.752Z,16.20
2023-02-01T18:36:37.408Z,15.70
2023-02-01T18:39:08.048Z,12.13
2023-02-01T18:41:41.978Z,12.27
2023-02-01T18:44:17.557Z,12.65
2023-02-01T18:46:49.519Z,12.55
2023-02-01T18:49:20.784Z,12.95
2023-02-01T18:51:52.399Z,16.02
2023-02-01T18:54:24.857Z,12.38
2023-02-01T18:56:58.800Z,24.63
2023-02-01T18:59:29.255Z,47.85
2023-02-01T19:02:00.008Z,28.70
2023-02-01T19:04:30.715Z,30.73
2023-02-01T19:07:01.668Z,39.05
2023-02-01T19:09:32.488Z,38.42
2023-02-01T19:12:06.106Z,36.63
2023-02-01T19:14:36.720Z,36.40
2023-02-01T19:17:07.346Z,36.65
2023-02-01T19:19:37.911Z,36.08
2023-02-01T19:22:08.774Z,31.80
2023-02-01T19:24:39.688Z,31.52
2023-02-01T19:27:13.097Z,29.98
2023-02-01T19:29:46.345Z,36.25
2023-02-01T19:32:17.481Z,40.67
2023-02-01T19:34:48.176Z,38.65
2023-02-01T19:37:20.020Z,35.25
2023-02-01T19:39:50.751Z,32.63
2023-02-01T19:42:24.022Z,31.38
2023-02-01T19:44:54.634Z,38.00
2023-02-01T19:47:25.272Z,42.88
2023-02-01T19:49:55.995Z,41.70
2023-02-01T19:52:26.818Z,40.60
2023-02-01T19:54:57.435Z,41.22
2023-02-01T19:57:30.898Z,48.00
2023-02-01T20:00:01.572Z,41.60
2023-02-01T20:02:34.488Z,41.00
2023-02-01T20:05:05.082Z,41.97
2023-02-01T20:07:35.878Z,48.70
2023-02-01T20:10:07.441Z,50.00
2023-02-01T20:12:40.721Z,42.63
2023-02-01T20:15:11.974Z,42.13
2023-02-01T20:17:43.180Z,41.58
2023-02-01T20:20:15.622Z,48.50
2023-02-01T20:22:46.864Z,48.63
2023-02-01T20:25:17.738Z,47.33
2023-02-01T20:27:52.974Z,45.80
2023-02-01T20:30:23.776Z,43.30
2023-02-01T20:32:55.458Z,44.20
2023-02-01T20:35:26.563Z,44.65
2023-02-01T20:37:57.456Z,45.17
2023-02-01T20:40:28.379Z,45.22
2023-02-01T20:43:01.642Z,44.17
2023-02-01T20:45:32.458Z,40.13
2023-02-01T20:48:03.067Z,38.67
2023-02-01T20:50:34.153Z,27.55
2023-02-01T20:53:05.211Z,27.52
2023-02-01T20:55:35.863Z,25.02
2023-02-01T20:58:09.549Z,24.63
2023-02-01T21:00:40.388Z,21.00
2023-02-01T21:03:11.335Z,19.98
2023-02-01T21:05:44.977Z,18.08
2023-02-01T21:08:16.688Z,13.52
2023-02-01T21:10:47.511Z,11.32
2023-02-01T21:13:21.094Z,9.70
2023-02-01T21:15:51.820Z,10.27
2023-02-01T21:18:23.430Z,10.82
2023-02-01T21:20:54.195Z,9.75
2023-02-01T21:23:24.855Z,10.45
2023-02-01T21:25:55.574Z,9.18
2023-02-01T21:28:29.004Z,8.55
2023-02-01T21:30:59.662Z,7.35
2023-02-01T21:33:30.240Z,7.85
2023-02-01T21:36:00.786Z,7.50
2023-02-01T21:38:31.535Z,7.88
2023-02-01T21:41:14.432Z,8.05
2023-02-01T21:43:47.692Z,7.82
2023-02-01T21:46:18.351Z,8.18
2023-02-01T21:49:04.913Z,8.20
2023-02-01T21:51:38.436Z,8.43
2023-02-01T21:54:09.171Z,8.90
2023-02-01T21:56:40.305Z,10.00
2023-02-01T21:59:13.743Z,10.13
2023-02-01T22:01:44.975Z,9.30
2023-02-01T22:04:15.596Z,9.82
2023-02-01T22:06:48.785Z,9.18
2023-02-01T22:09:21.329Z,10.48
2023-02-01T22:11:53.455Z,16.17
2023-02-01T22:14:27.023Z,11.60
2023-02-01T22:16:57.812Z,14.52
2023-02-01T22:19:28.403Z,13.32
2023-02-01T22:21:59.007Z,14.90
2023-02-01T22:24:29.763Z,15.48
2023-02-01T22:27:14.376Z,14.43
2023-02-01T22:29:48.377Z,15.52
2023-02-01T22:32:18.892Z,16.63
2023-02-01T22:34:49.315Z,17.23
2023-02-01T22:37:19.936Z,17.23
2023-02-01T22:39:51.146Z,17.35
2023-02-01T22:42:21.778Z,13.88
2023-02-01T22:44:55.024Z,11.85
2023-02-01T22:47:25.624Z,11.60
2023-02-01T22:49:56.147Z,7.85
2023-02-01T22:52:27.013Z,9.05
2023-02-01T22:54:58.095Z,9.50
2023-02-01T22:57:28.856Z,8.90
2023-02-01T23:00:02.079Z,8.85
2023-02-01T23:02:35.906Z,8.60
2023-02-01T23:05:07.729Z,7.13
2023-02-01T23:07:38.625Z,7.88
2023-02-01T23:10:10.342Z,7.07
2023-02-01T23:12:41.188Z,7.10
2023-02-01T23:15:16.375Z,7.57
2023-02-01T23:17:48.742Z,6.88
2023-02-01T23:20:21.336Z,8.13
2023-02-01T23:22:52.921Z,7.72
2023-02-01T23:25:23.878Z,8.38
2023-02-01T23:27:54.854Z,7.38
2023-02-01T23:30:28.547Z,6.00
2023-02-01T23:33:02.086Z,6.65
2023-02-01T23:35:32.701Z,4.00
2023-02-01T23:38:03.369Z,3.92
2023-02-01T23:40:33.865Z,7.95
2023-02-01T23:43:16.841Z,11.40
2023-02-01T23:45:49.914Z,16.33
2023-02-01T23:48:20.574Z,18.40
2023-02-01T23:50:51.377Z,18.83
2023-02-01T23:53:22.150Z,19.70
2023-02-01T23:55:55.694Z,12.20
2023-02-01T23:58:26.772Z,13.63
